createdAt,value
2023-04-02T00:00:21.345Z,0
2023-04-02T00:01:21.331Z,0
2023-04-02T00:02:21.393Z,0
2023-04-02T00:03:21.440Z,0
2023-04-02T00:04:21.330Z,0
2023-04-02T00:05:21.335Z,0
2023-04-02T00:06:21.356Z,0
2023-04-02T00:07:21.319Z,0
2023-04-02T00:08:21.327Z,0
2023-04-02T00:09:21.320Z,0
2023-04-02T00:10:21.323Z,0
2023-04-02T00:11:21.327Z,0
2023-04-02T00:12:21.330Z,0
2023-04-02T00:13:21.328Z,0
2023-04-02T00:14:21.329Z,0
2023-04-02T00:15:21.327Z,0
2023-04-02T00:16:21.346Z,0
2023-04-02T00:17:21.335Z,0
2023-04-02T00:18:21.408Z,0
2023-04-02T00:19:21.333Z,0
2023-04-02T00:20:21.341Z,0
2023-04-02T00:21:21.334Z,0
2023-04-02T00:22:21.362Z,0
2023-04-02T00:23:21.340Z,0
2023-04-02T00:24:21.339Z,0
2023-04-02T00:25:21.339Z,0
2023-04-02T00:26:21.336Z,0
2023-04-02T00:27:21.343Z,0
2023-04-02T00:28:21.345Z,0
2023-04-02T00:29:21.338Z,0
2023-04-02T00:30:21.335Z,0
2023-04-02T00:31:21.339Z,0
2023-04-02T00:32:21.395Z,0
2023-04-02T00:33:21.345Z,0
2023-04-02T00:34:21.342Z,0
2023-04-02T00:35:21.340Z,0
2023-04-02T00:36:21.397Z,0
2023-04-02T00:37:21.344Z,0
2023-04-02T00:38:21.384Z,0
2023-04-02T00:39:21.345Z,0
2023-04-02T00:40:21.344Z,0
2023-04-02T00:41:21.343Z,0
2023-04-02T00:42:21.348Z,0
2023-04-02T00:43:21.359Z,0
2023-04-02T00:44:21.354Z,0
2023-04-02T00:45:21.351Z,0
2023-04-02T00:46:21.375Z,0
2023-04-02T00:47:21.368Z,0
2023-04-02T00:48:21.355Z,0
2023-04-02T00:49:21.355Z,0
2023-04-02T00:50:21.422Z,0
2023-04-02T00:51:21.358Z,0
2023-04-02T00:52:21.357Z,0
2023-04-02T00:53:21.359Z,0
2023-04-02T00:54:21.385Z,0
2023-04-02T00:55:21.358Z,0
2023-04-02T00:56:21.363Z,0
2023-04-02T00:57:21.390Z,0
2023-04-02T00:58:21.358Z,0
2023-04-02T00:59:21.362Z,0
2023-04-02T01:00:21.386Z,0
2023-04-02T01:01:21.372Z,0
2023-04-02T01:02:21.377Z,0
2023-04-02T01:03:21.437Z,0
2023-04-02T01:04:21.368Z,0
2023-04-02T01:05:21.364Z,0
2023-04-02T01:06:21.365Z,0
2023-04-02T01:07:21.368Z,0
2023-04-02T01:08:21.372Z,0
2023-04-02T01:09:21.371Z,0
2023-04-02T01:10:21.391Z,0
2023-04-02T01:11:21.371Z,0
2023-04-02T01:12:21.369Z,0
2023-04-02T01:13:21.374Z,0
2023-04-02T01:14:21.376Z,0
2023-04-02T01:15:21.371Z,0
2023-04-02T01:16:21.422Z,0
2023-04-02T01:17:21.382Z,0
2023-04-02T01:18:21.383Z,0
2023-04-02T01:19:21.372Z,0
2023-04-02T01:20:21.375Z,0
2023-04-02T01:21:21.372Z,0
2023-04-02T01:22:21.375Z,0
2023-04-02T01:23:21.379Z,0
2023-04-02T01:24:21.376Z,0
2023-04-02T01:25:21.377Z,0
2023-04-02T01:26:21.408Z,0
2023-04-02T01:27:21.375Z,0
2023-04-02T01:28:21.380Z,0
2023-04-02T01:29:21.378Z,0
2023-04-02T01:30:21.378Z,0
2023-04-02T01:31:21.401Z,0
2023-04-02T01:32:21.379Z,0
2023-04-02T01:33:21.382Z,0
2023-04-02T01:34:21.383Z,0
2023-04-02T01:35:21.386Z,0
2023-04-02T01:36:21.446Z,0
2023-04-02T01:37:21.385Z,0
2023-04-02T01:38:21.384Z,0
2023-04-02T01:39:21.382Z,0
2023-04-02T01:40:21.382Z,0
2023-04-02T01:41:21.384Z,0
2023-04-02T01:42:21.416Z,0
2023-04-02T01:43:21.391Z,0
2023-04-02T01:44:21.384Z,0
2023-04-02T01:45:21.385Z,0
2023-04-02T01:46:21.391Z,0
2023-04-02T01:47:21.392Z,0
2023-04-02T01:48:21.390Z,0
2023-04-02T01:49:21.384Z,0
2023-04-02T01:50:21.391Z,0
2023-04-02T01:51:21.400Z,0
2023-04-02T01:52:21.386Z,0
2023-04-02T01:53:21.411Z,0
2023-04-02T01:54:21.389Z,0
2023-04-02T01:55:21.392Z,0
2023-04-02T01:56:21.394Z,0
2023-04-02T01:57:21.517Z,0
2023-04-02T01:58:21.419Z,0
2023-04-02T01:59:21.396Z,0
2023-04-02T02:00:21.395Z,0
2023-04-02T02:01:21.411Z,0
2023-04-02T02:02:21.411Z,0
2023-04-02T02:03:21.470Z,0
2023-04-02T02:04:21.403Z,0
2023-04-02T02:05:21.399Z,0
2023-04-02T02:06:21.398Z,0
2023-04-02T02:07:21.400Z,0
2023-04-02T02:08:21.400Z,0
2023-04-02T02:09:21.403Z,0
2023-04-02T02:10:21.403Z,0
2023-04-02T02:11:21.402Z,0
2023-04-02T02:12:21.413Z,0
2023-04-02T02:13:21.412Z,0
2023-04-02T02:14:21.436Z,0
2023-04-02T02:15:21.430Z,0
2023-04-02T02:16:21.453Z,0
2023-04-02T02:17:21.448Z,0
2023-04-02T02:18:21.418Z,0
2023-04-02T02:19:21.428Z,0
2023-04-02T02:20:21.415Z,0
2023-04-02T02:21:21.420Z,0
2023-04-02T02:22:21.416Z,0
2023-04-02T02:23:21.419Z,0
2023-04-02T02:24:21.429Z,0
2023-04-02T02:25:21.425Z,0
2023-04-02T02:26:21.417Z,0
2023-04-02T02:27:21.418Z,0
2023-04-02T02:28:21.421Z,0
2023-04-02T02:29:21.423Z,0
2023-04-02T02:30:21.445Z,0
2023-04-02T02:31:21.432Z,0
2023-04-02T02:32:21.425Z,0
2023-04-02T02:33:21.433Z,0
2023-04-02T02:34:21.439Z,0
2023-04-02T02:35:21.444Z,0
2023-04-02T02:36:21.437Z,0
2023-04-02T02:37:21.427Z,0
2023-04-02T02:38:21.427Z,0
2023-04-02T02:39:21.432Z,0
2023-04-02T02:40:21.435Z,0
2023-04-02T02:41:21.432Z,0
2023-04-02T02:42:21.427Z,0
2023-04-02T02:43:21.449Z,0
2023-04-02T02:44:21.436Z,0
2023-04-02T02:45:21.442Z,0
2023-04-02T02:46:21.477Z,0
2023-04-02T02:47:21.445Z,0
2023-04-02T02:48:21.431Z,0
2023-04-02T02:49:21.432Z,0
2023-04-02T02:50:21.434Z,0
2023-04-02T02:51:21.435Z,0
2023-04-02T02:52:21.454Z,0
2023-04-02T02:53:21.450Z,0
2023-04-02T02:54:21.441Z,0
2023-04-02T02:55:21.435Z,0
2023-04-02T02:56:21.438Z,0
2023-04-02T02:57:21.480Z,0
2023-04-02T02:58:21.439Z,0
2023-04-02T02:59:21.445Z,0
2023-04-02T03:00:21.439Z,0
2023-04-02T03:01:21.457Z,0
2023-04-02T03:02:21.633Z,0
2023-04-02T03:03:21.558Z,0
2023-04-02T03:04:21.462Z,0
2023-04-02T03:05:21.448Z,0
2023-04-02T03:06:21.448Z,0
2023-04-02T03:07:21.443Z,0
2023-04-02T03:08:21.448Z,0
2023-04-02T03:09:21.455Z,0
2023-04-02T03:10:21.466Z,0
2023-04-02T03:11:21.442Z,0
2023-04-02T03:12:21.448Z,0
2023-04-02T03:13:21.450Z,0
2023-04-02T03:14:21.474Z,0
2023-04-02T03:15:21.447Z,0
2023-04-02T03:16:21.503Z,0
2023-04-02T03:17:21.459Z,0
2023-04-02T03:18:21.476Z,0
2023-04-02T03:19:21.447Z,0
2023-04-02T03:20:21.450Z,0
2023-04-02T03:21:21.459Z,0
2023-04-02T03:22:21.460Z,0
2023-04-02T03:23:21.456Z,0
2023-04-02T03:24:21.459Z,0
2023-04-02T03:25:21.460Z,0
2023-04-02T03:26:21.463Z,0
2023-04-02T03:27:21.467Z,0
2023-04-02T03:28:21.464Z,0
2023-04-02T03:29:21.465Z,0
2023-04-02T03:30:21.463Z,0
2023-04-02T03:31:21.492Z,0
2023-04-02T03:32:21.470Z,0
2023-04-02T03:33:21.492Z,0
2023-04-02T03:34:21.496Z,0
2023-04-02T03:35:21.473Z,0
2023-04-02T03:36:21.535Z,0
2023-04-02T03:37:21.488Z,0
2023-04-02T03:38:21.478Z,0
2023-04-02T03:39:21.471Z,0
2023-04-02T03:40:21.468Z,0
2023-04-02T03:41:21.484Z,0
2023-04-02T03:42:21.475Z,0
2023-04-02T03:43:21.471Z,0
2023-04-02T03:44:21.474Z,0
2023-04-02T03:45:21.477Z,0
2023-04-02T03:46:21.490Z,0
2023-04-02T03:47:21.513Z,0
2023-04-02T03:48:21.477Z,0
2023-04-02T03:49:21.481Z,0
2023-04-02T03:50:21.504Z,0
2023-04-02T03:51:21.494Z,0
2023-04-02T03:52:21.480Z,0
2023-04-02T03:53:21.480Z,0
2023-04-02T03:54:21.484Z,0
2023-04-02T03:55:21.498Z,0
2023-04-02T03:56:21.482Z,0
2023-04-02T03:57:21.505Z,0
2023-04-02T03:58:21.490Z,0
2023-04-02T03:59:21.504Z,0
2023-04-02T04:00:21.488Z,0
2023-04-02T04:01:21.497Z,0
2023-04-02T04:02:21.604Z,0
2023-04-02T04:03:21.488Z,0
2023-04-02T04:04:21.565Z,0
2023-04-02T04:05:21.495Z,0
2023-04-02T04:06:21.514Z,0
2023-04-02T04:07:21.492Z,0
2023-04-02T04:08:21.495Z,0
2023-04-02T04:09:21.491Z,0
2023-04-02T04:10:21.496Z,0
2023-04-02T04:11:21.508Z,0
2023-04-02T04:12:21.493Z,0
2023-04-02T04:13:21.497Z,0
2023-04-02T04:14:21.505Z,0
2023-04-02T04:15:21.507Z,0
2023-04-02T04:16:21.538Z,0
2023-04-02T04:17:21.500Z,0
2023-04-02T04:18:21.532Z,0
2023-04-02T04:19:21.501Z,0
2023-04-02T04:20:21.527Z,0
2023-04-02T04:21:21.498Z,0
2023-04-02T04:22:21.529Z,0
2023-04-02T04:23:21.502Z,0
2023-04-02T04:24:21.506Z,0
2023-04-02T04:25:21.524Z,0
2023-04-02T04:26:21.508Z,0
2023-04-02T04:27:21.516Z,0
2023-04-02T04:28:21.524Z,0
2023-04-02T04:29:21.511Z,0
2023-04-02T04:30:21.504Z,0
2023-04-02T04:31:22.772Z,0
2023-04-02T04:32:21.527Z,0
2023-04-02T04:33:21.510Z,0
2023-04-02T04:34:21.512Z,0
2023-04-02T04:35:21.524Z,2
2023-04-02T04:36:21.516Z,2
2023-04-02T04:37:21.515Z,2
2023-04-02T04:38:21.544Z,2
2023-04-02T04:39:21.526Z,2
2023-04-02T04:40:21.513Z,5
2023-04-02T04:41:21.509Z,5
2023-04-02T04:42:21.512Z,5
2023-04-02T04:43:21.510Z,5
2023-04-02T04:44:21.507Z,5
2023-04-02T04:45:21.506Z,10
2023-04-02T04:46:21.560Z,10
2023-04-02T04:47:21.525Z,10
2023-04-02T04:48:21.525Z,10
2023-04-02T04:49:21.508Z,10
2023-04-02T04:50:21.514Z,16
2023-04-02T04:51:21.513Z,16
2023-04-02T04:52:21.516Z,16
2023-04-02T04:53:21.513Z,16
2023-04-02T04:54:21.535Z,16
2023-04-02T04:55:21.514Z,24
2023-04-02T04:56:21.511Z,24
2023-04-02T04:57:21.567Z,24
2023-04-02T04:58:21.517Z,24
2023-04-02T04:59:21.512Z,24
2023-04-02T05:00:21.519Z,33
2023-04-02T05:01:21.522Z,33
2023-04-02T05:02:21.514Z,33
2023-04-02T05:03:21.511Z,33
2023-04-02T05:04:21.562Z,33
2023-04-02T05:05:21.516Z,44
2023-04-02T05:06:21.513Z,44
2023-04-02T05:07:21.515Z,44
2023-04-02T05:08:21.519Z,44
2023-04-02T05:09:21.517Z,44
2023-04-02T05:10:21.540Z,61
2023-04-02T05:11:21.518Z,61
2023-04-02T05:12:21.517Z,61
2023-04-02T05:13:21.522Z,61
2023-04-02T05:14:21.519Z,61
2023-04-02T05:15:21.528Z,79
2023-04-02T05:16:21.549Z,79
2023-04-02T05:17:21.527Z,79
2023-04-02T05:18:21.520Z,79
2023-04-02T05:19:21.527Z,79
2023-04-02T05:20:21.522Z,97
2023-04-02T05:21:21.529Z,97
2023-04-02T05:22:21.525Z,97
2023-04-02T05:23:21.523Z,97
2023-04-02T05:24:21.528Z,97
2023-04-02T05:25:21.525Z,124
2023-04-02T05:26:21.552Z,124
2023-04-02T05:27:21.528Z,124
2023-04-02T05:28:21.530Z,124
2023-04-02T05:29:21.530Z,124
2023-04-02T05:30:21.531Z,131
2023-04-02T05:31:21.571Z,131
2023-04-02T05:32:21.528Z,131
2023-04-02T05:33:21.529Z,131
2023-04-02T05:34:21.531Z,131
2023-04-02T05:35:21.534Z,151
2023-04-02T05:36:21.569Z,151
2023-04-02T05:37:21.534Z,151
2023-04-02T05:38:21.534Z,151
2023-04-02T05:39:21.534Z,151
2023-04-02T05:40:21.535Z,183
2023-04-02T05:41:21.536Z,183
2023-04-02T05:42:21.568Z,183
2023-04-02T05:43:21.537Z,183
2023-04-02T05:44:21.540Z,183
2023-04-02T05:45:21.543Z,210
2023-04-02T05:46:21.582Z,210
2023-04-02T05:47:21.554Z,210
2023-04-02T05:48:21.558Z,210
2023-04-02T05:49:21.545Z,210
2023-04-02T05:50:21.546Z,211
2023-04-02T05:51:21.553Z,211
2023-04-02T05:52:21.550Z,211
2023-04-02T05:53:21.556Z,211
2023-04-02T05:54:21.556Z,211
2023-04-02T05:55:21.565Z,259
2023-04-02T05:56:21.551Z,259
2023-04-02T05:57:23.171Z,259
2023-04-02T05:58:35.167Z,259
2023-04-02T05:59:21.553Z,259
2023-04-02T06:00:21.558Z,290
2023-04-02T06:01:21.548Z,290
2023-04-02T06:02:21.579Z,290
2023-04-02T06:03:21.631Z,290
2023-04-02T06:04:21.554Z,290
2023-04-02T06:05:21.555Z,340
2023-04-02T06:06:21.564Z,340
2023-04-02T06:07:21.561Z,340
2023-04-02T06:08:21.565Z,340
2023-04-02T06:09:21.560Z,340
2023-04-02T06:10:22.820Z,473
2023-04-02T06:11:21.563Z,473
2023-04-02T06:12:21.560Z,473
2023-04-02T06:13:21.560Z,473
2023-04-02T06:14:21.589Z,473
2023-04-02T06:15:21.565Z,562
2023-04-02T06:16:21.572Z,562
2023-04-02T06:17:21.564Z,562
2023-04-02T06:18:21.563Z,562
2023-04-02T06:19:21.567Z,562
2023-04-02T06:20:21.565Z,705
2023-04-02T06:21:21.566Z,705
2023-04-02T06:22:21.572Z,705
2023-04-02T06:23:21.572Z,705
2023-04-02T06:24:21.569Z,705
2023-04-02T06:25:21.567Z,819
2023-04-02T06:26:21.571Z,819
2023-04-02T06:27:21.572Z,819
2023-04-02T06:28:21.574Z,819
2023-04-02T06:29:21.572Z,819
2023-04-02T06:30:21.595Z,831
2023-04-02T06:31:21.643Z,831
2023-04-02T06:32:21.594Z,831
2023-04-02T06:33:21.577Z,831
2023-04-02T06:34:21.578Z,831
2023-04-02T06:35:21.592Z,789
2023-04-02T06:36:21.596Z,789
2023-04-02T06:37:21.583Z,789
2023-04-02T06:38:21.581Z,789
2023-04-02T06:39:21.584Z,789
2023-04-02T06:40:21.585Z,705
2023-04-02T06:41:21.587Z,705
2023-04-02T06:42:21.586Z,705
2023-04-02T06:43:21.592Z,705
2023-04-02T06:44:21.590Z,705
2023-04-02T06:45:21.586Z,662
2023-04-02T06:46:21.632Z,662
2023-04-02T06:47:21.590Z,662
2023-04-02T06:48:21.591Z,662
2023-04-02T06:49:21.600Z,662
2023-04-02T06:50:21.597Z,663
2023-04-02T06:51:21.592Z,663
2023-04-02T06:52:21.596Z,663
2023-04-02T06:53:21.611Z,663
2023-04-02T06:54:21.608Z,663
2023-04-02T06:55:21.655Z,658
2023-04-02T06:56:21.599Z,658
2023-04-02T06:57:21.645Z,658
2023-04-02T06:58:21.597Z,658
2023-04-02T06:59:21.606Z,658
2023-04-02T07:00:21.596Z,663
2023-04-02T07:01:21.607Z,663
2023-04-02T07:02:21.626Z,663
2023-04-02T07:03:21.602Z,663
2023-04-02T07:04:21.637Z,663
2023-04-02T07:05:21.604Z,692
2023-04-02T07:06:21.611Z,692
2023-04-02T07:07:21.601Z,692
2023-04-02T07:08:21.622Z,692
2023-04-02T07:09:21.605Z,692
2023-04-02T07:10:21.605Z,749
2023-04-02T07:11:21.601Z,749
2023-04-02T07:12:21.606Z,749
2023-04-02T07:13:21.608Z,749
2023-04-02T07:14:21.614Z,749
2023-04-02T07:15:21.601Z,920
2023-04-02T07:16:21.620Z,920
2023-04-02T07:17:21.660Z,920
2023-04-02T07:18:21.632Z,920
2023-04-02T07:19:21.607Z,920
2023-04-02T07:20:21.607Z,1031
2023-04-02T07:21:21.674Z,1031
2023-04-02T07:22:21.610Z,1031
2023-04-02T07:23:21.604Z,1031
2023-04-02T07:24:21.607Z,1031
2023-04-02T07:25:21.610Z,967
2023-04-02T07:26:21.610Z,967
2023-04-02T07:27:21.606Z,967
2023-04-02T07:28:22.835Z,967
2023-04-02T07:29:21.621Z,967
2023-04-02T07:30:21.610Z,967
2023-04-02T07:31:21.649Z,967
2023-04-02T07:32:21.612Z,967
2023-04-02T07:33:21.630Z,967
2023-04-02T07:34:21.640Z,967
2023-04-02T07:35:21.616Z,1009
2023-04-02T07:36:21.629Z,1009
2023-04-02T07:37:21.616Z,1009
2023-04-02T07:38:21.624Z,1009
2023-04-02T07:39:21.624Z,1009
2023-04-02T07:40:21.625Z,1128
2023-04-02T07:41:21.624Z,1128
2023-04-02T07:42:21.621Z,1128
2023-04-02T07:43:21.621Z,1128
2023-04-02T07:44:21.632Z,1128
2023-04-02T07:45:21.624Z,1182
2023-04-02T07:46:21.668Z,1182
2023-04-02T07:47:21.628Z,1182
2023-04-02T07:48:21.627Z,1182
2023-04-02T07:49:21.627Z,1182
2023-04-02T07:50:21.657Z,1336
2023-04-02T07:51:21.628Z,1336
2023-04-02T07:52:21.630Z,1336
2023-04-02T07:53:21.628Z,1336
2023-04-02T07:54:21.635Z,1336
2023-04-02T07:55:21.629Z,1460
2023-04-02T07:56:21.632Z,1460
2023-04-02T07:57:21.737Z,1460
2023-04-02T07:58:21.633Z,1460
2023-04-02T07:59:21.632Z,1460
2023-04-02T08:00:21.691Z,1477
2023-04-02T08:01:21.635Z,1477
2023-04-02T08:02:21.662Z,1477
2023-04-02T08:03:21.673Z,1477
2023-04-02T08:04:21.670Z,1477
2023-04-02T08:05:21.638Z,1310
2023-04-02T08:06:21.664Z,1310
2023-04-02T08:07:21.638Z,1310
2023-04-02T08:08:21.638Z,1310
2023-04-02T08:09:21.639Z,1310
2023-04-02T08:10:21.634Z,1384
2023-04-02T08:11:21.643Z,1384
2023-04-02T08:12:21.643Z,1384
2023-04-02T08:13:21.644Z,1384
2023-04-02T08:14:21.645Z,1384
2023-04-02T08:15:21.647Z,1587
2023-04-02T08:16:21.666Z,1587
2023-04-02T08:17:21.656Z,1587
2023-04-02T08:18:21.648Z,1587
2023-04-02T08:19:21.647Z,1587
2023-04-02T08:20:21.650Z,1687
2023-04-02T08:21:21.648Z,1687
2023-04-02T08:22:21.683Z,1687
2023-04-02T08:23:21.660Z,1687
2023-04-02T08:24:21.659Z,1687
2023-04-02T08:25:21.650Z,1781
2023-04-02T08:26:21.653Z,1781
2023-04-02T08:27:21.654Z,1781
2023-04-02T08:28:21.657Z,1781
2023-04-02T08:29:21.662Z,1781
2023-04-02T08:30:21.665Z,2168
2023-04-02T08:31:21.674Z,2168
2023-04-02T08:32:21.660Z,2168
2023-04-02T08:33:21.664Z,2168
2023-04-02T08:34:21.674Z,2168
2023-04-02T08:35:21.658Z,2438
2023-04-02T08:36:21.669Z,2438
2023-04-02T08:37:21.664Z,2438
2023-04-02T08:38:21.694Z,2438
2023-04-02T08:39:21.661Z,2438
2023-04-02T08:40:21.661Z,3652
2023-04-02T08:41:21.667Z,3652
2023-04-02T08:42:21.672Z,3652
2023-04-02T08:43:23.529Z,3652
2023-04-02T08:44:21.671Z,3652
2023-04-02T08:45:38.349Z,2982
2023-04-02T08:46:21.709Z,2982
2023-04-02T08:47:21.671Z,2982
2023-04-02T08:48:21.670Z,2705
2023-04-02T08:49:21.674Z,2747
2023-04-02T08:50:21.671Z,2747
2023-04-02T08:51:21.674Z,3388
2023-04-02T08:52:21.671Z,5523
2023-04-02T08:53:21.676Z,4704
2023-04-02T08:54:21.697Z,4250
2023-04-02T08:55:21.672Z,4232
2023-04-02T08:56:21.673Z,4232
2023-04-02T08:57:21.688Z,3745
2023-04-02T08:58:21.673Z,6086
2023-04-02T08:59:21.696Z,3534
2023-04-02T09:00:21.673Z,2896
2023-04-02T09:01:21.709Z,2839
2023-04-02T09:02:21.751Z,2839
2023-04-02T09:03:21.683Z,2839
2023-04-02T09:04:21.737Z,2839
2023-04-02T09:05:21.684Z,2839
2023-04-02T09:06:21.678Z,3045
2023-04-02T09:07:21.689Z,3144
2023-04-02T09:08:21.683Z,2774
2023-04-02T09:09:21.686Z,2774
2023-04-02T09:10:21.728Z,2774
2023-04-02T09:11:21.682Z,2774
2023-04-02T09:12:21.682Z,2774
2023-04-02T09:13:21.684Z,2374
2023-04-02T09:14:21.684Z,2246
2023-04-02T09:15:21.687Z,2189
2023-04-02T09:16:21.730Z,2189
2023-04-02T09:17:21.709Z,2189
2023-04-02T09:18:21.710Z,1895
2023-04-02T09:19:21.688Z,1823
2023-04-02T09:20:21.708Z,1748
2023-04-02T09:21:21.701Z,1704
2023-04-02T09:22:21.685Z,1704
2023-04-02T09:23:21.686Z,1704
2023-04-02T09:24:21.688Z,1498
2023-04-02T09:25:21.702Z,1468
2023-04-02T09:26:21.716Z,1444
2023-04-02T09:27:21.691Z,1410
2023-04-02T09:28:21.694Z,1391
2023-04-02T09:29:21.693Z,1400
2023-04-02T09:30:21.699Z,1336
2023-04-02T09:31:21.755Z,1299
2023-04-02T09:32:21.700Z,1261
2023-04-02T09:33:21.690Z,1215
2023-04-02T09:34:21.689Z,1167
2023-04-02T09:35:26.433Z,1167
2023-04-02T09:36:21.747Z,1167
2023-04-02T09:37:21.698Z,1167
2023-04-02T09:38:21.836Z,1167
2023-04-02T09:39:21.705Z,983
2023-04-02T09:40:21.701Z,983
2023-04-02T09:41:21.698Z,983
2023-04-02T09:42:21.730Z,1003
2023-04-02T09:43:21.711Z,967
2023-04-02T09:44:21.700Z,1005
2023-04-02T09:45:21.701Z,971
2023-04-02T09:46:21.724Z,971
2023-04-02T09:47:21.717Z,971
2023-04-02T09:48:21.699Z,1029
2023-04-02T09:49:21.702Z,1052
2023-04-02T09:50:21.714Z,1077
2023-04-02T09:51:21.749Z,1099
2023-04-02T09:52:21.706Z,1115
2023-04-02T09:53:21.703Z,1175
2023-04-02T09:54:21.705Z,1149
2023-04-02T09:55:21.712Z,1149
2023-04-02T09:56:21.751Z,1149
2023-04-02T09:57:21.732Z,1149
2023-04-02T09:58:21.729Z,1149
2023-04-02T09:59:21.739Z,1250
2023-04-02T10:00:31.180Z,1250
2023-04-02T10:01:21.704Z,1250
2023-04-02T10:02:21.704Z,1250
2023-04-02T10:03:21.705Z,1250
2023-04-02T10:04:21.871Z,1436
2023-04-02T10:05:30.013Z,1436
2023-04-02T10:06:21.707Z,1436
2023-04-02T10:07:21.706Z,1436
2023-04-02T10:08:21.706Z,1436
2023-04-02T10:09:21.718Z,1503
2023-04-02T10:10:21.988Z,1503
2023-04-02T10:11:21.710Z,1503
2023-04-02T10:12:21.709Z,1503
2023-04-02T10:13:21.714Z,1503
2023-04-02T10:14:21.749Z,1394
2023-04-02T10:15:21.712Z,1394
2023-04-02T10:16:21.754Z,1394
2023-04-02T10:17:21.886Z,1394
2023-04-02T10:18:21.717Z,1394
2023-04-02T10:19:21.721Z,1347
2023-04-02T10:20:21.725Z,1347
2023-04-02T10:21:21.740Z,1347
2023-04-02T10:22:21.729Z,1347
2023-04-02T10:23:21.723Z,1347
2023-04-02T10:24:21.724Z,1363
2023-04-02T10:25:21.727Z,1363
2023-04-02T10:26:21.720Z,1363
2023-04-02T10:27:21.725Z,1363
2023-04-02T10:28:21.726Z,1363
2023-04-02T10:29:21.724Z,1394
2023-04-02T10:30:21.758Z,1394
2023-04-02T10:31:21.803Z,1394
2023-04-02T10:32:21.729Z,1394
2023-04-02T10:33:21.732Z,1394
2023-04-02T10:34:21.727Z,1433
2023-04-02T10:35:21.731Z,1433
2023-04-02T10:36:21.726Z,1433
2023-04-02T10:37:21.727Z,1433
2023-04-02T10:38:21.729Z,1433
2023-04-02T10:39:21.731Z,1454
2023-04-02T10:40:21.738Z,1454
2023-04-02T10:41:21.732Z,1454
2023-04-02T10:42:21.732Z,1454
2023-04-02T10:43:21.735Z,1454
2023-04-02T10:44:21.733Z,1570
2023-04-02T10:45:21.733Z,1570
2023-04-02T10:46:23.719Z,1570
2023-04-02T10:47:21.737Z,1570
2023-04-02T10:48:21.736Z,1570
2023-04-02T10:49:21.740Z,1621
2023-04-02T10:50:21.736Z,1621
2023-04-02T10:51:21.741Z,1621
2023-04-02T10:52:21.738Z,1621
2023-04-02T10:53:21.756Z,1621
2023-04-02T10:54:21.742Z,1719
2023-04-02T10:55:21.743Z,1719
2023-04-02T10:56:21.749Z,1719
2023-04-02T10:57:21.790Z,1719
2023-04-02T10:58:21.744Z,1719
2023-04-02T10:59:21.745Z,1885
2023-04-02T11:00:21.742Z,1922
2023-04-02T11:01:21.768Z,1922
2023-04-02T11:02:21.779Z,1922
2023-04-02T11:03:21.861Z,1922
2023-04-02T11:04:21.748Z,1922
2023-04-02T11:05:21.746Z,1843
2023-04-02T11:06:21.748Z,1843
2023-04-02T11:07:21.749Z,1753
2023-04-02T11:08:21.746Z,1753
2023-04-02T11:09:21.755Z,1753
2023-04-02T11:10:21.747Z,1753
2023-04-02T11:11:21.752Z,1753
2023-04-02T11:12:21.755Z,1495
2023-04-02T11:13:21.752Z,1495
2023-04-02T11:14:21.754Z,1495
2023-04-02T11:15:21.757Z,1495
2023-04-02T11:16:21.770Z,1495
2023-04-02T11:17:21.788Z,1346
2023-04-02T11:18:21.779Z,1336
2023-04-02T11:19:21.753Z,1336
2023-04-02T11:20:21.757Z,1336
2023-04-02T11:21:21.754Z,1336
2023-04-02T11:22:21.756Z,1336
2023-04-02T11:23:21.756Z,1336
2023-04-02T11:24:21.760Z,1394
2023-04-02T11:25:21.761Z,1394
2023-04-02T11:26:21.756Z,1394
2023-04-02T11:27:21.763Z,1394
2023-04-02T11:28:22.483Z,1394
2023-04-02T11:29:21.762Z,1563
2023-04-02T11:30:21.764Z,1563
2023-04-02T11:31:21.797Z,1563
2023-04-02T11:32:21.872Z,1563
2023-04-02T11:33:26.748Z,1563
2023-04-02T11:34:21.789Z,1729
2023-04-02T11:35:21.780Z,1729
2023-04-02T11:36:21.785Z,1729
2023-04-02T11:37:21.766Z,1729
2023-04-02T11:38:21.771Z,1729
2023-04-02T11:39:21.771Z,1547
2023-04-02T11:40:21.769Z,1547
2023-04-02T11:41:21.775Z,1547
2023-04-02T11:42:21.773Z,1547
2023-04-02T11:43:21.775Z,1547
2023-04-02T11:44:21.776Z,1448
2023-04-02T11:45:21.803Z,1448
2023-04-02T11:46:21.831Z,1448
2023-04-02T11:47:21.825Z,1448
2023-04-02T11:48:21.775Z,1448
2023-04-02T11:49:21.778Z,1348
2023-04-02T11:50:21.812Z,1348
2023-04-02T11:51:21.786Z,1348
2023-04-02T11:52:21.781Z,1348
2023-04-02T11:53:21.777Z,1348
2023-04-02T11:54:21.777Z,1580
2023-04-02T11:55:21.777Z,1580
2023-04-02T11:56:21.777Z,1580
2023-04-02T11:57:21.864Z,1580
2023-04-02T11:58:21.776Z,1580
2023-04-02T11:59:21.780Z,2308
2023-04-02T12:00:21.778Z,2424
2023-04-02T12:01:21.780Z,2434
2023-04-02T12:02:21.881Z,2434
2023-04-02T12:03:21.905Z,2840
2023-04-02T12:04:21.783Z,2970
2023-04-02T12:05:21.823Z,3268
2023-04-02T12:06:21.807Z,3267
2023-04-02T12:07:21.781Z,3261
2023-04-02T12:08:21.786Z,3188
2023-04-02T12:09:21.786Z,3188
2023-04-02T12:10:21.789Z,3188
2023-04-02T12:11:21.786Z,3188
2023-04-02T12:12:21.787Z,3188
2023-04-02T12:13:21.782Z,2649
2023-04-02T12:14:21.786Z,2649
2023-04-02T12:15:21.786Z,2649
2023-04-02T12:16:21.812Z,2438
2023-04-02T12:17:21.840Z,2438
2023-04-02T12:18:21.794Z,2438
2023-04-02T12:19:21.791Z,2438
2023-04-02T12:20:21.794Z,2374
2023-04-02T12:21:21.793Z,2374
2023-04-02T12:22:21.838Z,2378
2023-04-02T12:23:21.791Z,2340
2023-04-02T12:24:21.789Z,2245
2023-04-02T12:25:21.789Z,2181
2023-04-02T12:26:23.026Z,2181
2023-04-02T12:27:21.792Z,1953
2023-04-02T12:28:21.791Z,1953
2023-04-02T12:29:21.788Z,1953
2023-04-02T12:30:21.796Z,1749
2023-04-02T12:31:21.808Z,1749
2023-04-02T12:32:21.794Z,1586
2023-04-02T12:33:21.789Z,1529
2023-04-02T12:34:21.796Z,1525
2023-04-02T12:35:21.794Z,1462
2023-04-02T12:36:21.852Z,1412
2023-04-02T12:37:21.793Z,1387
2023-04-02T12:38:21.833Z,1324
2023-04-02T12:39:21.794Z,1324
2023-04-02T12:40:21.793Z,1324
2023-04-02T12:41:21.792Z,1324
2023-04-02T12:42:21.792Z,1324
2023-04-02T12:43:21.791Z,1306
2023-04-02T12:44:21.806Z,1270
2023-04-02T12:45:21.793Z,1270
2023-04-02T12:46:21.845Z,1270
2023-04-02T12:47:21.796Z,1270
2023-04-02T12:48:21.799Z,1270
2023-04-02T12:49:21.798Z,1337
2023-04-02T12:50:21.794Z,1337
2023-04-02T12:51:21.796Z,1273
2023-04-02T12:52:21.794Z,1270
2023-04-02T12:53:21.800Z,1270
2023-04-02T12:54:21.824Z,1379
2023-04-02T12:55:21.800Z,1355
2023-04-02T12:56:21.795Z,1331
2023-04-02T12:57:21.818Z,1316
2023-04-02T12:58:21.800Z,1316
2023-04-02T12:59:21.800Z,1316
2023-04-02T13:00:21.804Z,1316
2023-04-02T13:01:21.809Z,1316
2023-04-02T13:02:21.825Z,1410
2023-04-02T13:03:22.020Z,1410
2023-04-02T13:04:21.837Z,1410
2023-04-02T13:05:21.807Z,1410
2023-04-02T13:06:21.802Z,1410
2023-04-02T13:07:21.820Z,1539
2023-04-02T13:08:21.803Z,1539
2023-04-02T13:09:21.808Z,1539
2023-04-02T13:10:21.838Z,1539
2023-04-02T13:11:21.804Z,1539
2023-04-02T13:12:21.807Z,1485
2023-04-02T13:13:21.807Z,1485
2023-04-02T13:14:21.807Z,1485
2023-04-02T13:15:21.805Z,1485
2023-04-02T13:16:21.816Z,1485
2023-04-02T13:17:21.811Z,1613
2023-04-02T13:18:21.818Z,1613
2023-04-02T13:19:21.810Z,1613
2023-04-02T13:20:21.859Z,1613
2023-04-02T13:21:21.812Z,1613
2023-04-02T13:22:21.810Z,1913
2023-04-02T13:23:21.814Z,1917
2023-04-02T13:24:21.809Z,1917
2023-04-02T13:25:21.811Z,2134
2023-04-02T13:26:21.837Z,2166
2023-04-02T13:27:21.807Z,2224
2023-04-02T13:28:21.815Z,2288
2023-04-02T13:29:21.811Z,2288
2023-04-02T13:30:21.817Z,4279
2023-04-02T13:31:21.831Z,3627
2023-04-02T13:32:21.817Z,3627
2023-04-02T13:33:21.819Z,2886
2023-04-02T13:34:21.831Z,3654
2023-04-02T13:35:21.816Z,3745
2023-04-02T13:36:21.818Z,3745
2023-04-02T13:37:21.849Z,3745
2023-04-02T13:38:21.815Z,3745
2023-04-02T13:39:21.826Z,3745
2023-04-02T13:40:21.819Z,2446
2023-04-02T13:41:21.819Z,2457
2023-04-02T13:42:21.848Z,2457
2023-04-02T13:43:21.817Z,2150
2023-04-02T13:44:21.819Z,2150
2023-04-02T13:45:21.827Z,2115
2023-04-02T13:46:21.816Z,2115
2023-04-02T13:47:21.819Z,2115
2023-04-02T13:48:21.815Z,2115
2023-04-02T13:49:21.821Z,2611
2023-04-02T13:50:21.824Z,2468
2023-04-02T13:51:21.823Z,2987
2023-04-02T13:52:21.819Z,3843
2023-04-02T13:53:21.819Z,3143
2023-04-02T13:54:21.821Z,3134